createdAt,value
2022-08-22T00:02:33.111Z,17.45
2022-08-22T00:02:53.439Z,19.11
2022-08-22T00:02:55.493Z,17.02
2022-08-22T00:02:56.790Z,17.30
2022-08-22T00:02:58.169Z,16.81
2022-08-22T00:03:00.886Z,19.46
2022-08-22T00:03:03.231Z,18.90
2022-08-22T00:05:07.249Z,17.62
2022-08-22T00:07:49.620Z,17.66
2022-08-22T00:10:25.440Z,17.76
2022-08-22T00:13:04.063Z,17.76
2022-08-22T00:15:43.682Z,17.77
2022-08-22T00:18:19.620Z,17.77
2022-08-22T00:20:54.306Z,17.78
2022-08-22T00:23:28.746Z,17.78
2022-08-22T00:26:03.106Z,17.75
2022-08-22T00:28:39.500Z,17.76
2022-08-22T00:31:17.955Z,17.69
2022-08-22T00:33:54.312Z,17.62
2022-08-22T00:36:31.613Z,17.52
2022-08-22T00:39:09.564Z,17.46
2022-08-22T00:42:13.617Z,17.63
2022-08-22T00:45:14.751Z,17.48
2022-08-22T00:48:14.687Z,17.45
2022-08-22T00:51:15.519Z,17.50
2022-08-22T00:53:50.520Z,17.41
2022-08-22T00:56:47.498Z,17.49
2022-08-22T01:00:08.964Z,17.75
2022-08-22T01:02:53.164Z,17.69
2022-08-22T01:05:40.449Z,17.79
2022-08-22T01:08:25.179Z,17.81
2022-08-22T01:11:09.164Z,17.69
2022-08-22T01:13:53.757Z,17.87
2022-08-22T01:16:41.844Z,17.73
2022-08-22T01:19:50.341Z,17.90
2022-08-22T01:23:07.026Z,17.90
2022-08-22T01:26:02.291Z,18.03
2022-08-22T01:29:10.627Z,18.13
2022-08-22T01:32:06.244Z,18.07
2022-08-22T01:35:10.940Z,18.07
2022-08-22T01:38:25.721Z,18.10
2022-08-22T01:41:29.452Z,18.20
2022-08-22T01:44:13.323Z,18.05
2022-08-22T01:46:58.649Z,17.91
2022-08-22T01:49:31.047Z,17.93
2022-08-22T01:52:07.627Z,18.02
2022-08-22T01:54:49.979Z,18.07
2022-08-22T01:57:20.083Z,17.97
2022-08-22T01:59:50.813Z,17.88
2022-08-22T02:02:37.431Z,17.94
2022-08-22T02:05:14.575Z,17.96
2022-08-22T02:07:51.072Z,17.98
2022-08-22T02:10:26.791Z,17.99
2022-08-22T02:13:08.360Z,17.79
2022-08-22T02:15:51.720Z,18.08
2022-08-22T02:18:28.133Z,17.80
2022-08-22T02:21:05.282Z,17.71
2022-08-22T02:23:48.415Z,17.63
2022-08-22T02:26:22.998Z,17.81
2022-08-22T02:28:58.968Z,17.93
2022-08-22T02:31:39.786Z,18.06
2022-08-22T02:34:31.493Z,18.13
2022-08-22T02:37:09.345Z,18.04
2022-08-22T02:39:47.675Z,18.02
2022-08-22T02:42:22.870Z,18.03
2022-08-22T02:45:04.419Z,18.00
2022-08-22T02:47:40.386Z,18.01
2022-08-22T02:50:19.075Z,17.75
2022-08-22T02:52:57.860Z,17.95
2022-08-22T02:55:42.551Z,17.82
2022-08-22T02:58:20.607Z,17.86
2022-08-22T03:00:52.365Z,17.89
2022-08-22T03:03:26.064Z,17.93
2022-08-22T03:06:01.871Z,17.93
2022-08-22T03:08:33.945Z,18.08
2022-08-22T03:11:20.482Z,18.13
2022-08-22T03:13:59.523Z,18.14
2022-08-22T03:16:36.326Z,18.12
2022-08-22T03:19:13.123Z,18.14
2022-08-22T03:21:57.623Z,18.10
2022-08-22T03:24:34.370Z,18.32
2022-08-22T03:27:12.320Z,18.51
2022-08-22T03:29:48.105Z,18.47
2022-08-22T03:32:19.857Z,18.31
2022-08-22T03:35:03.977Z,18.50
2022-08-22T03:37:41.680Z,18.31
2022-08-22T03:40:31.542Z,18.11
2022-08-22T03:43:33.445Z,18.20
2022-08-22T03:46:24.343Z,18.10
2022-08-22T03:49:09.640Z,18.11
2022-08-22T03:51:53.743Z,17.98
2022-08-22T03:54:59.042Z,18.06
2022-08-22T03:58:04.319Z,18.02
2022-08-22T04:01:08.691Z,17.96
2022-08-22T04:04:14.824Z,18.03
2022-08-22T04:07:28.075Z,17.96
2022-08-22T04:10:30.183Z,18.23
2022-08-22T04:13:17.279Z,18.09
2022-08-22T04:16:04.319Z,18.11
2022-08-22T04:19:08.158Z,18.29
2022-08-22T04:22:24.440Z,18.48
2022-08-22T04:25:04.650Z,18.47
2022-08-22T04:27:41.542Z,18.45
2022-08-22T04:30:21.401Z,18.36
2022-08-22T04:32:58.521Z,18.33
2022-08-22T04:35:31.944Z,18.29
2022-08-22T04:38:06.001Z,18.30
2022-08-22T04:40:40.656Z,18.29
2022-08-22T04:43:15.729Z,18.52
2022-08-22T04:45:50.135Z,18.30
2022-08-22T04:48:28.237Z,18.50
2022-08-22T04:51:03.477Z,18.59
2022-08-22T04:53:56.924Z,18.52
2022-08-22T04:56:41.132Z,18.48
2022-08-22T04:59:13.057Z,18.51
2022-08-22T05:01:46.923Z,18.55
2022-08-22T05:04:22.603Z,18.75
2022-08-22T05:06:55.559Z,18.54
2022-08-22T05:09:28.780Z,18.68
2022-08-22T05:12:03.449Z,18.76
2022-08-22T05:14:39.877Z,18.63
2022-08-22T05:17:12.211Z,18.51
2022-08-22T05:19:50.850Z,18.42
2022-08-22T05:22:23.053Z,18.48
2022-08-22T05:24:57.257Z,18.59
2022-08-22T05:27:30.477Z,18.55
2022-08-22T05:30:03.648Z,18.62
2022-08-22T05:32:42.319Z,18.69
2022-08-22T05:35:12.629Z,18.59
2022-08-22T05:37:46.263Z,18.61
2022-08-22T05:40:21.152Z,18.53
2022-08-22T05:42:50.041Z,18.50
2022-08-22T05:45:20.720Z,18.67
2022-08-22T05:47:53.883Z,18.77
2022-08-22T05:50:33.921Z,18.54
2022-08-22T05:53:07.662Z,18.57
2022-08-22T05:55:48.448Z,18.56
2022-08-22T05:58:27.148Z,18.59
2022-08-22T06:01:03.506Z,18.61
2022-08-22T06:03:37.927Z,18.67
2022-08-22T06:06:16.212Z,18.70
2022-08-22T06:08:49.790Z,18.73
2022-08-22T06:11:25.806Z,18.67
2022-08-22T06:14:14.143Z,18.66
2022-08-22T06:16:48.610Z,18.84
2022-08-22T06:19:20.293Z,18.87
2022-08-22T06:21:53.086Z,18.87
2022-08-22T06:24:25.492Z,18.90
2022-08-22T06:27:00.426Z,18.99
2022-08-22T06:29:35.008Z,19.07
2022-08-22T06:32:11.340Z,19.12
2022-08-22T06:34:44.385Z,19.18
2022-08-22T06:37:20.946Z,19.17
2022-08-22T06:39:52.653Z,19.09
2022-08-22T06:42:25.607Z,19.25
2022-08-22T06:44:58.846Z,19.10
2022-08-22T06:47:31.731Z,19.08
2022-08-22T06:50:03.269Z,19.32
2022-08-22T06:52:36.318Z,19.33
2022-08-22T06:55:09.486Z,19.25
2022-08-22T06:57:45.047Z,19.31
2022-08-22T07:00:17.223Z,19.32
2022-08-22T07:02:50.406Z,19.42
2022-08-22T07:05:22.327Z,19.51
2022-08-22T07:07:53.418Z,19.38
2022-08-22T07:10:24.302Z,19.47
2022-08-22T07:12:57.969Z,19.50
2022-08-22T07:15:34.810Z,19.32
2022-08-22T07:18:06.943Z,19.28
2022-08-22T07:20:38.845Z,19.47
2022-08-22T07:23:12.531Z,19.44
2022-08-22T07:25:54.231Z,19.37
2022-08-22T07:28:36.853Z,19.40
2022-08-22T07:31:31.913Z,19.42
2022-08-22T07:34:05.043Z,19.25
2022-08-22T07:36:51.356Z,19.40
2022-08-22T07:39:30.247Z,19.46
2022-08-22T07:42:07.134Z,19.56
2022-08-22T07:44:46.923Z,19.71
2022-08-22T07:47:26.175Z,19.64
2022-08-22T07:49:59.113Z,19.71
2022-08-22T07:52:33.861Z,19.71
2022-08-22T07:55:15.352Z,19.58
2022-08-22T07:57:48.761Z,19.77
2022-08-22T08:00:21.350Z,19.87
2022-08-22T08:02:53.352Z,19.78
2022-08-22T08:05:24.474Z,19.83
2022-08-22T08:07:55.380Z,19.74
2022-08-22T08:10:31.722Z,19.66
2022-08-22T08:13:04.392Z,19.80
2022-08-22T08:15:37.180Z,19.64
2022-08-22T08:18:09.371Z,19.90
2022-08-22T08:20:39.144Z,19.81
2022-08-22T08:23:12.160Z,19.92
2022-08-22T08:25:57.360Z,20.05
2022-08-22T08:28:38.262Z,20.10
2022-08-22T08:31:16.209Z,19.96
2022-08-22T08:33:48.895Z,20.01
2022-08-22T08:36:34.631Z,20.16
2022-08-22T08:39:12.849Z,20.33
2022-08-22T08:42:32.989Z,20.26
2022-08-22T08:45:25.813Z,20.49
2022-08-22T08:48:15.149Z,20.65
2022-08-22T08:51:06.092Z,20.60
2022-08-22T08:53:53.193Z,20.65
2022-08-22T08:56:34.532Z,20.89
2022-08-22T08:59:14.709Z,20.86
2022-08-22T09:02:23.471Z,20.95
2022-08-22T09:05:19.556Z,20.95
2022-08-22T09:08:19.428Z,20.76
2022-08-22T09:11:14.239Z,21.01
2022-08-22T09:13:57.623Z,21.03
2022-08-22T09:16:45.592Z,21.18
2022-08-22T09:19:29.031Z,21.02
2022-08-22T09:22:21.329Z,20.75
2022-08-22T09:25:11.381Z,20.91
2022-08-22T09:27:49.039Z,20.61
2022-08-22T09:30:27.731Z,20.87
2022-08-22T09:33:03.699Z,21.01
2022-08-22T09:35:44.670Z,21.08
2022-08-22T09:38:27.528Z,21.11
2022-08-22T09:41:06.411Z,21.12
2022-08-22T09:43:44.749Z,20.90
2022-08-22T09:46:31.358Z,20.87
2022-08-22T09:49:12.471Z,20.68
2022-08-22T09:51:46.462Z,20.48
2022-08-22T09:54:32.968Z,20.51
2022-08-22T09:57:15.309Z,20.58
2022-08-22T10:00:15.209Z,20.69
2022-08-22T10:02:53.834Z,20.78
2022-08-22T10:05:39.487Z,20.67
2022-08-22T10:08:30.361Z,20.70
2022-08-22T10:11:11.519Z,20.83
2022-08-22T10:13:57.779Z,20.75
2022-08-22T10:16:53.395Z,20.82
2022-08-22T10:19:28.931Z,21.01
2022-08-22T10:22:24.633Z,21.02
2022-08-22T10:25:08.931Z,21.00
2022-08-22T10:27:52.191Z,21.15
2022-08-22T10:30:26.659Z,21.14
2022-08-22T10:33:05.805Z,21.13
2022-08-22T10:35:41.109Z,21.23
2022-08-22T10:38:18.948Z,21.29
2022-08-22T10:40:57.802Z,21.36
2022-08-22T10:43:36.355Z,21.44
2022-08-22T10:46:13.761Z,21.49
2022-08-22T10:48:49.271Z,21.54
2022-08-22T10:51:37.799Z,21.61
2022-08-22T10:54:22.649Z,21.61
2022-08-22T10:57:04.059Z,21.58
2022-08-22T10:59:42.424Z,21.65
2022-08-22T11:02:42.260Z,21.75
2022-08-22T11:05:37.866Z,21.47
2022-08-22T11:08:22.727Z,21.73
2022-08-22T11:11:09.282Z,21.76
2022-08-22T11:13:45.050Z,21.99
2022-08-22T11:16:31.411Z,22.12
2022-08-22T11:19:29.171Z,22.24
2022-08-22T11:22:09.957Z,22.31
2022-08-22T11:25:15.289Z,22.35
2022-08-22T11:28:37.748Z,22.18
2022-08-22T11:31:16.535Z,21.96
2022-08-22T11:33:54.130Z,22.20
2022-08-22T11:36:39.590Z,22.05
2022-08-22T11:39:26.253Z,22.09
2022-08-22T11:42:06.674Z,22.04
2022-08-22T11:44:49.994Z,21.67
2022-08-22T11:47:26.853Z,21.94
2022-08-22T11:50:04.172Z,21.99
2022-08-22T11:53:07.563Z,21.85
2022-08-22T11:55:40.656Z,22.01
2022-08-22T11:58:28.743Z,22.20
2022-08-22T12:01:03.871Z,22.30
2022-08-22T12:03:55.861Z,22.44
2022-08-22T12:07:02.334Z,22.09
2022-08-22T12:09:42.532Z,22.10
2022-08-22T12:12:26.076Z,22.19
2022-08-22T12:15:00.381Z,22.36
2022-08-22T12:18:21.222Z,22.32
2022-08-22T12:21:28.349Z,22.42
2022-08-22T12:24:23.199Z,22.50
2022-08-22T12:27:28.422Z,22.43
2022-08-22T12:30:13.919Z,22.41
2022-08-22T12:33:17.308Z,22.68
2022-08-22T12:36:01.070Z,22.80
2022-08-22T12:38:57.870Z,22.88
2022-08-22T12:41:56.528Z,22.63
2022-08-22T12:44:38.175Z,22.56
2022-08-22T12:47:27.111Z,22.69
2022-08-22T12:50:26.370Z,22.68
2022-08-22T12:53:20.084Z,22.63
2022-08-22T12:56:05.058Z,22.64
2022-08-22T12:58:51.142Z,22.72
2022-08-22T13:01:23.359Z,22.70
2022-08-22T13:04:08.882Z,22.73
2022-08-22T13:07:03.692Z,22.65
2022-08-22T13:09:38.690Z,22.70
2022-08-22T13:12:22.476Z,22.51
2022-08-22T13:14:55.975Z,22.71
2022-08-22T13:17:27.456Z,22.31
2022-08-22T13:20:02.736Z,22.56
2022-08-22T13:22:36.314Z,22.35
2022-08-22T13:25:10.103Z,22.51
2022-08-22T13:27:51.366Z,22.62
2022-08-22T13:30:22.372Z,22.72
2022-08-22T13:32:55.492Z,22.80
2022-08-22T13:35:27.473Z,22.86
2022-08-22T13:38:07.890Z,22.86
2022-08-22T13:40:47.324Z,22.82
2022-08-22T13:43:24.094Z,22.90
2022-08-22T13:45:57.893Z,22.68
2022-08-22T13:48:49.697Z,22.80
2022-08-22T13:51:27.832Z,22.93
2022-08-22T13:54:10.890Z,23.03
2022-08-22T13:56:47.421Z,22.94
2022-08-22T13:59:47.476Z,22.92
2022-08-22T14:02:34.374Z,22.66
2022-08-22T14:05:11.596Z,22.82
2022-08-22T14:07:48.839Z,22.60
2022-08-22T14:10:27.294Z,22.64
2022-08-22T14:13:34.616Z,22.66
2022-08-22T14:16:10.430Z,22.35
2022-08-22T14:18:45.480Z,22.38
2022-08-22T14:21:29.473Z,22.56
2022-08-22T14:24:25.850Z,22.66
2022-08-22T14:26:59.731Z,22.68
2022-08-22T14:29:41.235Z,22.79
2022-08-22T14:32:35.077Z,22.99
2022-08-22T14:35:23.082Z,22.98
2022-08-22T14:37:59.838Z,22.82
2022-08-22T14:40:37.726Z,22.54
2022-08-22T14:43:10.722Z,22.61
2022-08-22T14:45:44.188Z,22.56
2022-08-22T14:48:30.453Z,22.38
2022-08-22T14:51:04.464Z,22.49
2022-08-22T14:53:37.126Z,22.67
2022-08-22T14:56:11.110Z,22.38
2022-08-22T14:58:50.825Z,22.47
2022-08-22T15:01:22.943Z,22.49
2022-08-22T15:04:00.890Z,22.35
2022-08-22T15:06:37.513Z,22.23
2022-08-22T15:09:09.757Z,22.17
2022-08-22T15:11:42.301Z,22.28
2022-08-22T15:14:16.365Z,22.36
2022-08-22T15:16:53.351Z,22.34
2022-08-22T15:19:28.450Z,22.30
2022-08-22T15:22:15.631Z,22.33
2022-08-22T15:24:53.757Z,22.16
2022-08-22T15:27:27.729Z,21.96
2022-08-22T15:30:02.561Z,22.02
2022-08-22T15:32:33.955Z,22.06
2022-08-22T15:35:13.433Z,22.41
2022-08-22T15:37:57.696Z,22.08
2022-08-22T15:40:40.558Z,22.04
2022-08-22T15:43:23.077Z,22.07
2022-08-22T15:45:54.953Z,22.10
2022-08-22T15:48:31.269Z,22.19
2022-08-22T15:51:03.070Z,22.23
2022-08-22T15:53:54.588Z,22.13
2022-08-22T15:56:29.295Z,22.19
2022-08-22T15:59:47.914Z,22.02
2022-08-22T16:02:27.429Z,22.19
2022-08-22T16:05:22.216Z,22.16
2022-08-22T16:08:02.905Z,22.14
2022-08-22T16:10:38.215Z,22.04
2022-08-22T16:13:35.669Z,21.86
2022-08-22T16:16:12.089Z,22.16
2022-08-22T16:19:19.551Z,22.18
2022-08-22T16:22:17.286Z,22.27
2022-08-22T16:25:06.529Z,22.14
2022-08-22T16:27:52.453Z,22.09
2022-08-22T16:30:38.533Z,21.96
2022-08-22T16:33:14.862Z,21.85
2022-08-22T16:36:24.710Z,21.93
2022-08-22T16:38:57.172Z,21.84
2022-08-22T16:41:35.611Z,21.90
2022-08-22T16:44:41.929Z,21.85
2022-08-22T16:47:19.410Z,21.50
2022-08-22T16:50:11.369Z,21.47
2022-08-22T16:52:56.359Z,21.62
2022-08-22T16:55:49.872Z,21.52
2022-08-22T16:58:56.546Z,21.43
2022-08-22T17:01:39.280Z,21.25
2022-08-22T17:04:20.053Z,21.46
2022-08-22T17:07:06.431Z,21.31
2022-08-22T17:09:50.109Z,21.22
2022-08-22T17:12:32.059Z,21.04
2022-08-22T17:15:16.512Z,21.11
2022-08-22T17:17:59.541Z,21.08
2022-08-22T17:20:40.977Z,20.90
2022-08-22T17:23:20.873Z,21.06
2022-08-22T17:26:00.870Z,21.18
2022-08-22T17:28:41.127Z,21.12
2022-08-22T17:31:17.375Z,20.98
2022-08-22T17:34:03.009Z,21.00
2022-08-22T17:36:47.629Z,20.85
2022-08-22T17:39:31.169Z,20.91
2022-08-22T17:42:20.856Z,20.89
2022-08-22T17:44:57.277Z,20.82
2022-08-22T17:47:33.490Z,20.91
2022-08-22T17:50:07.932Z,20.90
2022-08-22T17:52:43.136Z,20.86
2022-08-22T17:55:18.215Z,20.68
2022-08-22T17:57:52.857Z,20.80
2022-08-22T18:00:30.738Z,20.71
2022-08-22T18:03:06.956Z,20.77
2022-08-22T18:05:41.456Z,20.62
2022-08-22T18:11:10.310Z,20.58
2022-08-22T18:13:45.834Z,20.49
2022-08-22T18:16:24.148Z,20.68
2022-08-22T18:19:02.551Z,20.38
2022-08-22T18:21:35.865Z,20.57
2022-08-22T18:24:21.825Z,20.49
2022-08-22T18:26:59.692Z,20.02
2022-08-22T18:29:41.712Z,19.71
2022-08-22T18:32:15.761Z,19.37
2022-08-22T18:34:50.061Z,19.35
2022-08-22T18:37:24.628Z,19.44
2022-08-22T18:40:00.150Z,19.52
2022-08-22T18:42:34.646Z,19.58
2022-08-22T18:45:03.556Z,19.66
2022-08-22T18:47:34.046Z,19.56
2022-08-22T18:50:24.484Z,19.30
2022-08-22T18:52:53.429Z,19.03
2022-08-22T18:55:46.710Z,19.07
2022-08-22T18:59:01.930Z,19.15
2022-08-22T19:01:46.766Z,19.22
2022-08-22T19:04:50.492Z,18.92
2022-08-22T19:07:51.553Z,18.90
2022-08-22T19:10:37.746Z,18.88
2022-08-22T19:13:22.506Z,18.90
2022-08-22T19:16:05.860Z,18.91
2022-08-22T19:18:43.942Z,18.78
2022-08-22T19:21:41.158Z,18.69
2022-08-22T19:24:13.952Z,18.64
2022-08-22T19:26:47.935Z,18.58
2022-08-22T19:29:55.592Z,18.57
2022-08-22T19:33:03.157Z,18.55
2022-08-22T19:35:40.523Z,18.47
2022-08-22T19:38:11.076Z,18.46
2022-08-22T19:40:55.823Z,18.48
2022-08-22T19:43:34.457Z,18.42
2022-08-22T19:46:06.497Z,18.50
2022-08-22T19:48:45.387Z,18.52
2022-08-22T19:51:25.920Z,18.57
2022-08-22T19:54:17.879Z,18.52
2022-08-22T19:56:59.977Z,18.52
2022-08-22T19:59:50.666Z,18.63
2022-08-22T20:02:33.556Z,18.57
2022-08-22T20:05:20.457Z,18.59
2022-08-22T20:08:05.498Z,18.51
2022-08-22T20:10:49.937Z,18.35
2022-08-22T20:13:23.621Z,18.29
2022-08-22T20:16:17.979Z,18.26
2022-08-22T20:19:17.277Z,18.33
2022-08-22T20:21:53.458Z,18.38
2022-08-22T20:24:27.519Z,18.46
2022-08-22T20:27:13.469Z,18.42
2022-08-22T20:29:49.757Z,18.39
2022-08-22T20:32:23.279Z,18.46
2022-08-22T20:34:57.196Z,18.60
2022-08-22T20:38:02.827Z,18.52
2022-08-22T20:40:54.600Z,18.58
2022-08-22T20:43:29.563Z,18.52
2022-08-22T20:46:08.657Z,18.58
2022-08-22T20:48:46.319Z,18.66
2022-08-22T20:51:18.739Z,18.63
2022-08-22T20:53:53.893Z,18.81
2022-08-22T20:56:53.215Z,18.84
2022-08-22T20:59:28.734Z,18.84
2022-08-22T21:02:05.882Z,18.92
2022-08-22T21:04:44.213Z,18.88
2022-08-22T21:07:13.032Z,18.84
2022-08-22T21:09:58.951Z,18.88
2022-08-22T21:12:27.971Z,18.83
2022-08-22T21:14:56.400Z,18.82
2022-08-22T21:17:29.341Z,18.90
2022-08-22T21:20:21.367Z,18.76
2022-08-22T21:22:51.143Z,18.83
2022-08-22T21:25:19.803Z,18.77
2022-08-22T21:27:49.600Z,18.73
2022-08-22T21:30:24.985Z,18.93
2022-08-22T21:32:56.379Z,18.86
2022-08-22T21:35:32.684Z,18.72
2022-08-22T21:38:02.625Z,18.85
2022-08-22T21:40:34.765Z,18.91
2022-08-22T21:43:08.463Z,18.89
2022-08-22T21:45:43.986Z,19.06
2022-08-22T21:48:32.654Z,18.86
2022-08-22T21:51:25.152Z,18.63
2022-08-22T21:54:32.191Z,18.56
2022-08-22T21:57:15.826Z,18.84
2022-08-22T21:59:52.142Z,18.95
2022-08-22T22:02:36.605Z,18.91
2022-08-22T22:05:09.593Z,19.01
2022-08-22T22:07:44.528Z,18.88
2022-08-22T22:10:16.957Z,18.96
2022-08-22T22:12:47.451Z,18.81
2022-08-22T22:15:18.479Z,18.87
2022-08-22T22:17:47.303Z,18.88
2022-08-22T22:20:17.838Z,18.67
2022-08-22T22:22:48.323Z,18.57
2022-08-22T22:25:39.048Z,18.35
2022-08-22T22:28:10.595Z,18.39
2022-08-22T22:30:39.349Z,18.39
2022-08-22T22:33:08.086Z,18.53
2022-08-22T22:35:39.685Z,18.56
2022-08-22T22:38:10.449Z,18.82
2022-08-22T22:40:38.748Z,18.82
2022-08-22T22:43:07.285Z,18.78
2022-08-22T22:45:35.897Z,18.64
2022-08-22T22:48:04.903Z,18.69
2022-08-22T22:50:33.980Z,18.70
2022-08-22T22:53:02.660Z,18.70
2022-08-22T22:55:33.146Z,18.69
2022-08-22T22:58:02.556Z,18.76
2022-08-22T23:00:33.426Z,18.79
2022-08-22T23:03:02.425Z,18.68
2022-08-22T23:05:31.825Z,18.72
2022-08-22T23:08:01.390Z,18.78
2022-08-22T23:10:32.989Z,18.91
2022-08-22T23:13:01.799Z,18.81
2022-08-22T23:15:30.384Z,18.93
2022-08-22T23:17:59.377Z,18.78
2022-08-22T23:20:28.030Z,18.63
2022-08-22T23:22:56.690Z,18.84
2022-08-22T23:25:25.310Z,18.74
2022-08-22T23:27:55.598Z,18.84
2022-08-22T23:30:24.347Z,18.75
2022-08-22T23:32:52.936Z,18.82
2022-08-22T23:35:21.503Z,18.89
2022-08-22T23:37:50.022Z,18.82
2022-08-22T23:40:18.757Z,18.92
2022-08-22T23:42:47.402Z,18.85
2022-08-22T23:45:17.450Z,18.70
2022-08-22T23:47:46.043Z,18.74
2022-08-22T23:50:14.741Z,18.69
2022-08-22T23:52:43.484Z,18.62
2022-08-22T23:55:12.116Z,18.61
2022-08-22T23:57:40.781Z,18.52
